Time;durP1;ratioP1;P1;durP2;ratioP2;P2;SDS_P1;SDS_P2;PMS_P1;PMS_P2;Temp;Humidity;BMP_temperature;BMP_pressure;BME280_temperature;BME280_humidity;BME280_pressure;Samples;Min_cycle;Max_cycle;Signal;HPM_P1;HPM_P2
2023/05/09 00:00:22;;;;;;;;;2.67;2.00;;;;;15.79;68.01;100823.91;5072210;28;45503;-72
2023/05/09 00:02:47;;;;;;;;;3.00;3.00;;;;;15.65;67.83;100807.88;5076623;27;45546;-72
2023/05/09 00:05:13;;;;;;;;;3.67;3.00;;;;;15.85;68.63;100822.22;5076572;28;45495;-73
2023/05/09 00:07:39;;;;;;;;;5.00;4.33;;;;;15.67;68.51;100807.03;5076710;28;45523;-72
2023/05/09 00:10:05;;;;;;;;;6.67;5.00;;;;;15.49;68.82;100789.25;5076094;28;45562;-73
2023/05/09 00:12:31;;;;;;;;;3.67;3.00;;;;;15.44;69.93;100819.03;5076255;27;45508;-73
2023/05/09 00:14:56;;;;;;;;;3.33;3.00;;;;;15.45;69.80;100820.78;5071006;28;45674;-72
2023/05/09 00:17:25;;;;;;;;;3.67;3.00;;;;;15.30;70.03;100793.38;5076153;28;45770;-73
2023/05/09 00:19:51;;;;;;;;;3.00;3.00;;;;;15.40;70.06;100797.03;5075087;28;45446;-73
2023/05/09 00:22:20;;;;;;;;;4.00;3.00;;;;;15.48;69.62;100813.81;5076620;28;45610;-73
2023/05/09 00:24:46;;;;;;;;;2.00;2.00;;;;;15.37;70.07;100807.50;5075279;28;45582;-73
2023/05/09 00:27:12;;;;;;;;;5.00;3.00;;;;;15.41;69.75;100805.81;5074435;27;46610;-72
2023/05/09 00:29:37;;;;;;;;;2.00;2.00;;;;;15.32;69.38;100796.03;5067305;28;45634;-73
2023/05/09 00:32:03;;;;;;;;;3.00;2.00;;;;;15.35;69.55;100803.09;5076866;28;45425;-73
2023/05/09 00:34:28;;;;;;;;;2.00;2.00;;;;;15.41;69.12;100816.34;5076303;28;45509;-72
2023/05/09 00:36:54;;;;;;;;;3.00;2.00;;;;;15.25;68.83;100784.50;5069589;28;45569;-72
2023/05/09 00:39:19;;;;;;;;;5.00;4.75;;;;;15.39;68.80;100791.72;5073998;28;45404;-73
2023/05/09 00:41:45;;;;;;;;;5.00;3.00;;;;;15.30;68.73;100774.94;5074633;28;45543;-73
2023/05/09 00:44:11;;;;;;;;;4.00;3.00;;;;;15.42;69.01;100805.84;5063262;28;45358;-73
2023/05/09 00:46:37;;;;;;;;;4.00;3.00;;;;;15.35;69.06;100801.31;5074534;28;45570;-73
2023/05/09 00:49:04;;;;;;;;;3.00;3.00;;;;;15.31;69.25;100792.50;5075704;28;45477;-73
2023/05/09 00:51:31;;;;;;;;;3.00;3.00;;;;;15.43;68.67;100804.94;5076085;28;45373;-73
2023/05/09 00:53:57;;;;;;;;;5.00;5.00;;;;;15.51;68.87;100803.31;5069998;28;45603;-73
2023/05/09 00:56:22;;;;;;;;;3.00;2.50;;;;;15.53;68.54;100819.13;5074779;28;45644;-73
2023/05/09 00:58:49;;;;;;;;;6.25;3.75;;;;;15.39;68.95;100810.16;5064446;28;45414;-73
2023/05/09 01:01:15;;;;;;;;;3.25;3.00;;;;;15.34;69.44;100810.09;5075761;28;45479;-73
2023/05/09 01:03:42;;;;;;;;;3.00;3.00;;;;;15.16;70.48;100791.38;5072494;28;45432;-73
2023/05/09 01:06:21;;;;;;;;;3.00;3.00;;;;;15.40;70.15;100814.53;5070969;27;45310;-73
2023/05/09 01:09:13;;;;;;;;;2.67;2.67;;;;;15.17;70.42;100791.41;5075457;28;45513;-72
2023/05/09 01:11:54;;;;;;;;;4.00;3.33;;;;;15.13;71.14;100802.75;5074157;28;45521;-73
2023/05/09 01:14:26;;;;;;;;;4.75;3.50;;;;;15.29;70.63;100819.66;5074731;28;45518;-73
2023/05/09 01:16:52;;;;;;;;;4.00;3.00;;;;;15.29;70.34;100820.53;5075862;27;45396;-73
2023/05/09 01:19:52;;;;;;;;;1.67;1.00;;;;;15.32;70.16;100819.72;5076326;28;45747;-73
2023/05/09 01:22:23;;;;;;;;;4.00;4.00;;;;;15.25;70.59;100807.31;5072449;28;45560;-73
2023/05/09 01:25:23;;;;;;;;;4.00;3.00;;;;;15.39;70.67;100813.66;5075994;27;45568;-73
2023/05/09 01:27:57;;;;;;;;;2.50;2.25;;;;;15.34;70.89;100807.47;5070165;28;45368;-73
2023/05/09 01:30:25;;;;;;;;;4.00;3.75;;;;;15.45;70.39;100810.25;5072719;28;45375;-74
2023/05/09 01:32:52;;;;;;;;;4.00;3.00;;;;;15.60;70.06;100818.38;5091214;27;45612;-73
2023/05/09 01:35:22;;;;;;;;;3.00;3.00;;;;;15.63;70.29;100817.50;5076300;28;45419;-73
2023/05/09 01:37:49;;;;;;;;;3.00;3.00;;;;;15.69;69.67;100830.75;5076011;28;45423;-74
2023/05/09 01:40:19;;;;;;;;;3.75;2.25;;;;;15.68;70.02;100815.84;5076014;28;45485;-72
2023/05/09 01:42:57;;;;;;;;;3.00;3.00;;;;;15.71;69.51;100805.34;5058154;28;45501;-73
2023/05/09 01:45:25;;;;;;;;;2.00;2.00;;;;;15.82;68.76;100810.78;5076038;28;45853;-73
2023/05/09 01:47:52;;;;;;;;;4.00;3.00;;;;;15.66;69.14;100776.31;5053133;28;45351;-73
2023/05/09 01:50:20;;;;;;;;;3.00;3.00;;;;;15.74;69.28;100786.06;5076455;28;45301;-73
2023/05/09 01:52:48;;;;;;;;;3.00;3.00;;;;;15.69;69.65;100781.59;5079343;28;45412;-73
2023/05/09 01:55:15;;;;;;;;;3.00;2.00;;;;;15.69;69.22;100778.09;5079692;28;45576;-73
2023/05/09 01:57:43;;;;;;;;;6.00;3.00;;;;;15.62;69.10;100758.69;5056590;28;47611;-73
2023/05/09 02:00:12;;;;;;;;;4.00;3.00;;;;;15.68;69.08;100750.88;5079455;28;45512;-74
2023/05/09 02:02:38;;;;;;;;;3.00;2.33;;;;;15.75;68.88;100759.75;5076660;28;45335;-74
2023/05/09 02:05:08;;;;;;;;;3.00;2.67;;;;;15.68;69.46;100761.41;5080307;28;45611;-74
2023/05/09 02:07:35;;;;;;;;;2.00;2.00;;;;;15.78;69.21;100762.44;5079749;28;46575;-74
2023/05/09 02:10:02;;;;;;;;;2.33;2.00;;;;;15.79;68.86;100752.78;5079349;28;45714;-74
2023/05/09 02:12:27;;;;;;;;;3.67;3.00;;;;;15.77;68.66;100744.84;5079083;28;45349;-73
2023/05/09 02:14:53;;;;;;;;;3.33;3.00;;;;;15.86;69.24;100765.19;5079951;28;46045;-74
2023/05/09 02:17:20;;;;;;;;;2.33;2.33;;;;;15.77;69.22;100762.41;5079177;28;45562;-74
2023/05/09 02:19:46;;;;;;;;;2.00;2.00;;;;;15.70;68.55;100743.88;5079263;28;45313;-73
2023/05/09 02:22:12;;;;;;;;;3.33;3.33;;;;;15.76;68.28;100763.31;5079088;28;45349;-74
2023/05/09 02:24:37;;;;;;;;;2.00;2.00;;;;;15.76;69.21;100772.06;5079371;28;45392;-74
2023/05/09 02:27:06;;;;;;;;;4.67;3.00;;;;;15.82;69.55;100784.44;5076274;27;46167;-74
2023/05/09 02:29:39;;;;;;;;;3.00;2.00;;;;;15.88;69.30;100795.06;5079037;28;45456;-74
2023/05/09 02:32:17;;;;;;;;;3.00;2.67;;;;;15.86;68.53;100783.63;5079786;28;45533;-74
2023/05/09 02:34:45;;;;;;;;;3.00;3.00;;;;;16.00;68.14;100805.75;5079050;28;45447;-73
2023/05/09 02:37:12;;;;;;;;;2.33;2.00;;;;;16.03;67.73;100812.78;5077015;28;47493;-74
2023/05/09 02:39:38;;;;;;;;;4.00;4.00;;;;;15.91;67.69;100800.34;5078906;28;45497;-74
2023/05/09 02:42:06;;;;;;;;;2.67;2.00;;;;;16.03;67.80;100802.25;5078125;28;45338;-74
2023/05/09 02:44:32;;;;;;;;;5.33;4.67;;;;;15.99;68.01;100782.00;5079006;28;45419;-74
2023/05/09 02:46:58;;;;;;;;;4.00;3.00;;;;;15.94;67.83;100745.06;5079373;28;45441;-74
2023/05/09 02:49:23;;;;;;;;;5.00;3.67;;;;;15.87;68.13;100716.88;5079793;28;45538;-74
2023/05/09 02:51:49;;;;;;;;;4.00;3.67;;;;;16.00;67.64;100731.09;5079179;28;45333;-73
2023/05/09 02:54:14;;;;;;;;;1.00;1.00;;;;;15.98;67.61;100717.00;5080127;28;45398;-74
2023/05/09 02:56:40;;;;;;;;;3.00;3.00;;;;;16.00;68.22;100736.34;5079459;27;45426;-74
2023/05/09 02:59:06;;;;;;;;;3.67;3.00;;;;;15.77;68.42;100712.38;5080021;28;45274;-74
2023/05/09 03:01:31;;;;;;;;;2.00;2.00;;;;;15.82;68.36;100727.38;5079030;28;45376;-74
2023/05/09 03:03:57;;;;;;;;;2.67;2.67;;;;;15.95;67.89;100727.50;5078102;28;45232;-73
2023/05/09 03:06:22;;;;;;;;;3.67;3.00;;;;;15.94;68.87;100728.38;5077195;28;45702;-74
2023/05/09 03:08:48;;;;;;;;;3.33;3.33;;;;;15.81;69.13;100715.06;5078092;28;45281;-74
2023/05/09 03:11:14;;;;;;;;;2.00;2.00;;;;;15.96;69.14;100726.66;5078770;28;45437;-74
2023/05/09 03:13:39;;;;;;;;;4.00;3.00;;;;;16.02;68.76;100727.59;5079228;28;45332;-74
2023/05/09 03:16:06;;;;;;;;;4.00;4.00;;;;;16.05;68.96;100746.03;5077936;28;46238;-74
2023/05/09 03:18:31;;;;;;;;;4.00;3.00;;;;;15.92;69.73;100738.91;5078585;28;45453;-74
2023/05/09 03:20:57;;;;;;;;;7.00;6.75;;;;;15.85;69.50;100729.16;5078681;28;45575;-74
2023/05/09 03:23:22;;;;;;;;;3.33;3.00;;;;;15.86;69.07;100723.03;5078806;28;45528;-74
2023/05/09 03:25:48;;;;;;;;;4.33;3.00;;;;;15.86;69.20;100717.75;5078704;28;46403;-74
2023/05/09 03:28:13;;;;;;;;;4.67;4.00;;;;;15.74;69.34;100696.53;5078199;28;45360;-74
2023/05/09 03:30:39;;;;;;;;;1.00;1.00;;;;;15.76;69.52;100714.13;5078872;28;45438;-74
2023/05/09 03:33:05;;;;;;;;;4.00;3.00;;;;;15.75;69.73;100714.09;5079252;28;45479;-74
2023/05/09 03:35:30;;;;;;;;;5.00;3.00;;;;;15.84;69.42;100722.13;5077451;28;45547;-74
2023/05/09 03:37:56;;;;;;;;;3.00;3.00;;;;;15.79;69.21;100700.97;5077689;28;45467;-75
2023/05/09 03:40:21;;;;;;;;;3.00;2.33;;;;;15.96;68.69;100706.44;5076732;27;45590;-73
2023/05/09 03:42:47;;;;;;;;;3.67;3.00;;;;;15.97;68.72;100695.03;5077951;28;45396;-74
2023/05/09 03:45:12;;;;;;;;;3.00;2.33;;;;;15.96;68.72;100693.28;5078101;28;45475;-74
2023/05/09 03:47:38;;;;;;;;;3.00;3.00;;;;;16.10;69.00;100702.19;5077151;28;45721;-74
2023/05/09 03:50:04;;;;;;;;;3.00;3.00;;;;;16.05;68.90;100677.53;5076853;28;45325;-74
2023/05/09 03:52:30;;;;;;;;;3.33;3.00;;;;;16.06;68.70;100678.44;5078014;28;45367;-74
2023/05/09 03:54:55;;;;;;;;;3.00;3.00;;;;;16.14;68.79;100683.78;5076415;28;46232;-74
2023/05/09 03:57:21;;;;;;;;;2.00;2.00;;;;;16.18;68.25;100688.22;5077748;27;45421;-74
2023/05/09 03:59:46;;;;;;;;;2.00;2.00;;;;;16.25;67.88;100687.38;5078084;28;45531;-74
2023/05/09 04:02:12;;;;;;;;;2.67;2.00;;;;;16.24;67.27;100675.97;5077558;28;45570;-71
2023/05/09 04:04:37;;;;;;;;;3.00;3.00;;;;;16.21;67.72;100675.06;5077813;28;45489;-72
2023/05/09 04:07:03;;;;;;;;;3.67;3.00;;;;;16.02;67.86;100645.91;5077466;27;45506;-72
2023/05/09 04:09:29;;;;;;;;;3.33;3.33;;;;;16.21;67.62;100670.66;5076107;28;45488;-74
2023/05/09 04:11:54;;;;;;;;;4.00;3.00;;;;;16.17;67.88;100667.97;5075563;28;45519;-74
2023/05/09 04:14:20;;;;;;;;;4.00;3.67;;;;;16.18;67.64;100657.47;5074669;28;46608;-73
2023/05/09 04:16:45;;;;;;;;;3.67;3.00;;;;;16.24;67.39;100657.50;5077346;28;45410;-73
2023/05/09 04:19:11;;;;;;;;;3.00;3.00;;;;;16.30;67.34;100662.84;5072807;28;45549;-74
2023/05/09 04:21:36;;;;;;;;;5.00;4.00;;;;;16.15;67.37;100649.50;5065356;28;45458;-73
2023/05/09 04:24:02;;;;;;;;;2.67;2.33;;;;;16.25;67.50;100650.47;5076365;28;45517;-72
2023/05/09 04:26:29;;;;;;;;;4.33;3.00;;;;;16.24;67.21;100643.47;5076620;28;45287;-72
2023/05/09 04:28:54;;;;;;;;;4.00;3.67;;;;;16.27;67.50;100651.38;5075509;28;45372;-72
2023/05/09 04:31:20;;;;;;;;;3.00;2.67;;;;;16.29;67.38;100653.19;5077407;28;45355;-73
2023/05/09 04:33:45;;;;;;;;;3.67;3.00;;;;;16.32;67.12;100648.81;5076638;27;45819;-73
2023/05/09 04:36:11;;;;;;;;;2.67;2.00;;;;;16.26;67.23;100632.06;5077419;28;45579;-74
2023/05/09 04:38:37;;;;;;;;;4.00;2.00;;;;;16.13;66.97;100605.59;5060214;28;45519;-73
2023/05/09 04:41:02;;;;;;;;;3.00;2.33;;;;;16.15;67.50;100611.75;5076071;28;45410;-73
2023/05/09 04:43:28;;;;;;;;;3.00;2.00;;;;;16.17;67.22;100629.31;5077107;28;45655;-74
2023/05/09 04:45:54;;;;;;;;;3.00;3.00;;;;;16.28;67.32;100648.75;5075486;28;45452;-74
2023/05/09 04:48:19;;;;;;;;;5.00;3.00;;;;;16.36;66.84;100650.59;5076894;28;45388;-74
2023/05/09 04:50:47;;;;;;;;;2.00;2.00;;;;;16.25;66.80;100630.31;5077161;28;45589;-73
2023/05/09 04:53:13;;;;;;;;;3.00;2.33;;;;;16.31;66.55;100634.72;5077705;28;45283;-73
2023/05/09 04:55:38;;;;;;;;;3.33;3.00;;;;;16.27;66.51;100620.66;5076965;28;45234;-73
2023/05/09 04:58:04;;;;;;;;;3.33;3.00;;;;;16.26;66.71;100636.44;5075819;28;45321;-73
2023/05/09 05:00:30;;;;;;;;;3.00;3.00;;;;;16.26;66.84;100645.22;5075318;28;45660;-73
2023/05/09 05:02:55;;;;;;;;;4.00;2.00;;;;;16.23;66.83;100646.94;5057981;28;46379;-73
2023/05/09 05:05:21;;;;;;;;;4.33;3.00;;;;;16.27;67.05;100657.56;5070628;28;45436;-73
2023/05/09 05:07:46;;;;;;;;;2.00;2.00;;;;;16.18;66.62;100651.31;5075545;27;45437;-73
2023/05/09 05:10:12;;;;;;;;;2.33;2.00;;;;;16.37;66.47;100686.63;5077024;28;45774;-74
2023/05/09 05:12:38;;;;;;;;;2.00;2.00;;;;;16.30;66.38;100668.09;5076391;28;45417;-74
2023/05/09 05:15:04;;;;;;;;;4.00;3.33;;;;;16.28;66.05;100658.44;5076810;28;45402;-74
2023/05/09 05:17:29;;;;;;;;;3.00;3.00;;;;;16.40;66.17;100670.84;5076083;27;45412;-74
2023/05/09 05:19:55;;;;;;;;;5.00;4.00;;;;;16.36;65.87;100662.00;5076553;28;45558;-74
2023/05/09 05:22:20;;;;;;;;;2.00;2.00;;;;;16.52;65.38;100686.75;5075771;28;46460;-74
2023/05/09 05:24:46;;;;;;;;;2.00;2.00;;;;;16.50;64.57;100683.22;5076458;28;45547;-74
2023/05/09 05:27:11;;;;;;;;;2.00;2.00;;;;;16.53;63.54;100677.06;5076204;28;45508;-73
2023/05/09 05:29:37;;;;;;;;;1.33;1.33;;;;;16.45;62.32;100659.47;5076726;28;45349;-73
2023/05/09 05:32:03;;;;;;;;;2.00;2.00;;;;;16.57;61.88;100681.50;5074326;28;46340;-74
2023/05/09 05:34:29;;;;;;;;;2.67;1.67;;;;;16.39;60.78;100635.66;5062658;28;45469;-74
2023/05/09 05:36:55;;;;;;;;;2.00;2.00;;;;;16.51;60.84;100658.59;5086824;27;45491;-73
2023/05/09 05:39:20;;;;;;;;;1.33;1.00;;;;;16.67;60.73;100665.78;5067772;28;45605;-74
2023/05/09 05:41:46;;;;;;;;;1.67;1.33;;;;;16.80;60.12;100679.91;5075327;28;45790;-74
2023/05/09 05:44:11;;;;;;;;;2.67;2.00;;;;;16.86;59.97;100674.69;5076310;28;45500;-73
2023/05/09 05:46:37;;;;;;;;;2.33;2.00;;;;;16.84;60.46;100667.66;5075393;28;45611;-74
2023/05/09 05:49:02;;;;;;;;;3.67;3.67;;;;;17.01;61.20;100684.47;5076363;28;45547;-73
2023/05/09 05:51:28;;;;;;;;;19.75;17.75;;;;;16.93;62.35;100662.44;5074825;27;45753;-74
2023/05/09 05:53:53;;;;;;;;;8.25;7.00;;;;;16.84;64.53;100652.69;5074226;28;45364;-74
2023/05/09 05:56:19;;;;;;;;;3.67;3.00;;;;;16.88;65.62;100686.16;5074180;28;45473;-75
2023/05/09 05:58:44;;;;;;;;;4.33;4.33;;;;;16.79;64.81;100680.78;5076029;28;45231;-74
2023/05/09 06:01:10;;;;;;;;;7.33;6.33;;;;;16.63;64.76;100656.06;5074231;28;46642;-74
2023/05/09 06:03:35;;;;;;;;;8.25;7.50;;;;;16.79;64.10;100662.34;5071252;28;45498;-74
2023/05/09 06:06:01;;;;;;;;;4.33;4.33;;;;;16.92;62.46;100684.41;5072459;28;45430;-73
2023/05/09 06:08:27;;;;;;;;;7.00;4.33;;;;;16.84;62.95;100663.25;5074902;28;45394;-73
2023/05/09 06:10:52;;;;;;;;;8.75;7.50;;;;;16.81;63.10;100657.97;5075600;28;46367;-73
2023/05/09 06:13:18;;;;;;;;;17.25;17.25;;;;;17.01;62.96;100680.94;5075697;28;45449;-74
2023/05/09 06:15:44;;;;;;;;;11.50;11.00;;;;;17.09;62.96;100668.69;5075832;28;45573;-74
2023/05/09 06:18:10;;;;;;;;;8.00;5.00;;;;;17.00;63.07;100651.03;5075852;28;45299;-74
2023/05/09 06:20:35;;;;;;;;;12.75;10.00;;;;;17.09;62.85;100652.84;5074306;28;46601;-74
2023/05/09 06:23:01;;;;;;;;;5.00;5.00;;;;;17.10;62.69;100651.97;5075814;28;45362;-74
2023/05/09 06:25:26;;;;;;;;;4.67;3.33;;;;;17.02;62.45;100643.13;5075287;28;45347;-74
2023/05/09 06:27:52;;;;;;;;;4.00;3.00;;;;;16.94;62.51;100640.44;5074586;28;45744;-73
2023/05/09 06:30:17;;;;;;;;;4.00;3.00;;;;;16.98;62.27;100623.75;5075221;28;45481;-73
2023/05/09 06:32:43;;;;;;;;;15.25;12.25;;;;;17.04;62.66;100615.00;5075198;28;45539;-75
2023/05/09 06:35:08;;;;;;;;;16.50;15.25;;;;;17.25;62.50;100630.94;5075827;28;45585;-74
2023/05/09 06:37:34;;;;;;;;;10.00;8.00;;;;;17.23;61.51;100601.00;5076002;28;45349;-73
2023/05/09 06:40:00;;;;;;;;;6.00;5.67;;;;;17.48;60.62;100625.69;5079297;28;45477;-72
2023/05/09 06:42:25;;;;;;;;;5.00;4.67;;;;;17.38;60.82;100610.72;5078424;27;45520;-73
2023/05/09 06:44:51;;;;;;;;;3.33;3.33;;;;;17.39;62.27;100622.16;5079327;28;45508;-72
2023/05/09 06:47:16;;;;;;;;;4.00;3.00;;;;;17.37;62.87;100627.44;5079684;28;45589;-72
2023/05/09 06:49:42;;;;;;;;;4.00;3.33;;;;;17.36;63.91;100632.72;5078773;28;45491;-72
2023/05/09 06:52:08;;;;;;;;;5.00;4.00;;;;;17.28;63.87;100625.63;5078460;28;45522;-72
2023/05/09 06:54:33;;;;;;;;;4.33;3.67;;;;;17.35;63.81;100642.41;5065564;28;45563;-72
2023/05/09 06:56:59;;;;;;;;;4.00;4.00;;;;;17.28;63.60;100637.97;5089359;27;45636;-73
2023/05/09 06:59:25;;;;;;;;;4.00;4.00;;;;;17.23;63.48;100624.75;5078258;28;45422;-73
2023/05/09 07:01:51;;;;;;;;;5.00;3.33;;;;;17.21;63.50;100604.47;5078599;28;45480;-73
2023/05/09 07:04:16;;;;;;;;;5.67;5.33;;;;;17.26;63.51;100619.47;5077152;28;45464;-73
2023/05/09 07:06:42;;;;;;;;;4.00;4.00;;;;;17.24;62.93;100608.03;5062621;28;45583;-72
2023/05/09 07:09:07;;;;;;;;;6.00;5.00;;;;;17.39;61.45;100614.22;5092876;27;46359;-72
2023/05/09 07:11:36;;;;;;;;;4.00;4.00;;;;;17.44;61.58;100605.44;5078292;28;45512;-74
2023/05/09 07:14:03;;;;;;;;;5.00;4.67;;;;;17.55;62.33;100613.41;5066676;28;45437;-73
2023/05/09 07:16:28;;;;;;;;;8.00;7.00;;;;;17.63;62.65;100609.03;5086117;27;45667;-73
2023/05/09 07:18:54;;;;;;;;;18.00;17.00;;;;;17.86;62.86;100639.91;5072249;28;45455;-73
2023/05/09 07:21:20;;;;;;;;;16.25;16.25;;;;;17.86;62.81;100637.28;5110975;27;45399;-73
2023/05/09 07:23:46;;;;;;;;;9.67;7.33;;;;;17.95;62.18;100650.50;5077670;28;45489;-73
2023/05/09 07:26:11;;;;;;;;;5.33;4.33;;;;;17.88;61.74;100631.09;5078070;27;45505;-73
2023/05/09 07:28:37;;;;;;;;;4.33;3.33;;;;;17.91;61.19;100638.19;5076867;28;45713;-74
2023/05/09 07:31:04;;;;;;;;;5.33;4.00;;;;;18.00;61.36;100661.94;5077384;28;45503;-75
2023/05/09 07:33:30;;;;;;;;;4.33;3.00;;;;;17.65;61.41;100633.69;5077986;28;45578;-75
2023/05/09 07:35:58;;;;;;;;;5.00;3.67;;;;;17.75;61.75;100670.72;5076373;27;45365;-74
2023/05/09 07:38:23;;;;;;;;;4.33;3.33;;;;;17.18;62.09;100601.84;5077967;28;46502;-73
2023/05/09 07:40:49;;;;;;;;;3.67;3.67;;;;;17.71;61.75;100706.81;5077679;28;45486;-73
2023/05/09 07:43:14;;;;;;;;;4.00;2.67;;;;;17.66;61.88;100701.47;5078006;28;45484;-73
2023/05/09 07:45:40;;;;;;;;;2.67;2.00;;;;;17.61;61.65;100711.16;5077270;27;45571;-74
2023/05/09 07:48:05;;;;;;;;;2.33;1.33;;;;;17.66;61.15;100717.34;5074854;28;45467;-73
2023/05/09 07:50:32;;;;;;;;;2.67;2.67;;;;;17.63;60.79;100705.91;5077199;28;45282;-73
2023/05/09 07:52:58;;;;;;;;;3.00;3.00;;;;;17.64;59.93;100729.66;5077051;28;45861;-74
2023/05/09 07:55:24;;;;;;;;;3.67;1.67;;;;;17.65;59.46;100731.44;5077553;28;45366;-73
2023/05/09 07:57:50;;;;;;;;;2.33;2.33;;;;;17.67;58.83;100734.09;5076188;28;45382;-74
2023/05/09 08:00:16;;;;;;;;;3.33;2.67;;;;;17.79;58.84;100749.97;5077772;28;45486;-73
2023/05/09 08:02:41;;;;;;;;;3.67;2.67;;;;;17.68;59.13;100744.63;5075958;28;45528;-74
2023/05/09 08:05:10;;;;;;;;;3.67;3.00;;;;;17.69;59.87;100745.53;5077556;27;45539;-73
2023/05/09 08:07:35;;;;;;;;;5.00;4.00;;;;;17.66;59.57;100745.53;5075834;28;45590;-73
2023/05/09 08:10:01;;;;;;;;;4.00;3.33;;;;;17.75;59.64;100755.25;5075262;28;45532;-74
2023/05/09 08:12:27;;;;;;;;;5.67;5.67;;;;;17.73;60.11;100755.25;5077106;28;45310;-73
2023/05/09 08:14:52;;;;;;;;;5.00;4.67;;;;;17.79;60.24;100772.88;5077131;28;45536;-72
2023/05/09 08:17:18;;;;;;;;;4.33;4.33;;;;;17.82;61.27;100754.38;5076644;28;45575;-73
2023/05/09 08:19:43;;;;;;;;;3.67;2.67;;;;;17.89;60.33;100761.50;5075606;28;45661;-73
2023/05/09 08:22:15;;;;;;;;;2.67;2.67;;;;;17.82;60.27;100763.19;5076873;28;45893;-73
2023/05/09 08:24:41;;;;;;;;;4.33;4.33;;;;;17.83;60.65;100770.28;5077147;27;45500;-73
2023/05/09 08:27:06;;;;;;;;;3.67;3.67;;;;;17.80;60.90;100772.00;5063491;28;46784;-73
2023/05/09 08:29:33;;;;;;;;;4.33;4.00;;;;;17.68;61.07;100759.63;5085211;27;45488;-73
2023/05/09 08:31:58;;;;;;;;;8.67;8.00;;;;;17.85;60.85;100805.53;5069425;28;45468;-73
2023/05/09 08:34:24;;;;;;;;;3.67;3.00;;;;;17.58;63.13;100779.81;5077566;28;45464;-73
2023/05/09 08:36:49;;;;;;;;;2.67;2.67;;;;;17.68;63.86;100820.38;5076304;28;46539;-73
2023/05/09 08:39:15;;;;;;;;;7.00;6.67;;;;;17.66;63.90;100816.84;5077723;28;45364;-73
2023/05/09 08:41:42;;;;;;;;;3.67;3.67;;;;;17.67;63.70;100813.34;5075909;28;45521;-73
2023/05/09 08:44:08;;;;;;;;;4.67;4.67;;;;;17.69;65.14;100815.13;5077177;28;45452;-73
2023/05/09 08:46:37;;;;;;;;;4.33;3.67;;;;;17.64;64.42;100821.25;5071535;28;46790;-73
2023/05/09 08:49:07;;;;;;;;;4.00;4.00;;;;;17.68;64.75;100820.38;5071799;28;45523;-73
2023/05/09 08:51:34;;;;;;;;;3.67;3.67;;;;;17.69;65.23;100828.31;5076491;28;45341;-73
2023/05/09 08:54:00;;;;;;;;;5.00;5.00;;;;;17.67;66.92;100830.06;5075549;28;45591;-73
2023/05/09 08:56:26;;;;;;;;;4.00;3.67;;;;;17.56;65.10;100818.56;5074903;28;46418;-73
2023/05/09 08:58:53;;;;;;;;;6.00;4.00;;;;;17.62;65.13;100826.50;5075176;28;45619;-73
2023/05/09 09:01:19;;;;;;;;;6.33;6.33;;;;;17.73;66.07;100837.16;5076205;28;45528;-73
2023/05/09 09:03:48;;;;;;;;;3.67;3.67;;;;;17.64;65.47;100821.25;5075355;28;45515;-73
2023/05/09 09:06:15;;;;;;;;;5.67;5.00;;;;;17.78;67.03;100830.13;5071802;27;46581;-73
2023/05/09 09:08:42;;;;;;;;;4.33;4.33;;;;;17.73;65.86;100823.06;5071637;28;45434;-73
2023/05/09 09:11:12;;;;;;;;;5.00;5.00;;;;;17.82;66.15;100808.13;5074438;28;45401;-73
2023/05/09 09:13:40;;;;;;;;;5.67;5.00;;;;;17.99;67.19;100828.50;5076369;28;45539;-73
2023/05/09 09:16:10;;;;;;;;;5.67;5.00;;;;;17.94;65.81;100827.59;5075533;28;46662;-74
2023/05/09 09:18:39;;;;;;;;;3.67;3.67;;;;;18.06;65.58;100822.34;5075935;28;45264;-73
2023/05/09 09:21:08;;;;;;;;;3.33;3.33;;;;;17.94;66.55;100811.72;5075517;27;45426;-73
2023/05/09 09:23:37;;;;;;;;;6.00;5.33;;;;;17.99;64.81;100805.59;5074945;28;45515;-73
2023/05/09 09:26:06;;;;;;;;;5.33;5.33;;;;;18.06;64.52;100824.97;5075928;28;45516;-73
2023/05/09 09:28:33;;;;;;;;;5.33;5.00;;;;;18.08;65.03;100823.22;5075805;28;45539;-73
2023/05/09 09:31:00;;;;;;;;;3.67;3.67;;;;;17.80;64.94;100793.13;5076180;28;45496;-73
2023/05/09 09:33:27;;;;;;;;;4.67;4.67;;;;;17.87;65.90;100818.75;5076926;28;45373;-73
2023/05/09 09:35:55;;;;;;;;;4.33;4.33;;;;;17.80;65.78;100814.28;5076931;28;45429;-73
2023/05/09 09:38:21;;;;;;;;;4.33;4.33;;;;;17.86;65.59;100838.13;5076182;28;45350;-73
2023/05/09 09:40:50;;;;;;;;;6.00;5.67;;;;;17.78;67.39;100837.16;5076181;28;45308;-73
2023/05/09 09:43:15;;;;;;;;;7.00;6.33;;;;;17.64;65.88;100827.41;5076100;27;45446;-73
2023/05/09 09:45:41;;;;;;;;;5.67;5.67;;;;;17.56;66.61;100831.75;5073748;28;45709;-74
2023/05/09 09:48:07;;;;;;;;;6.00;5.00;;;;;17.58;68.40;100845.00;5075996;28;45611;-74
2023/05/09 09:50:32;;;;;;;;;5.33;5.33;;;;;17.60;67.77;100843.25;5074833;28;45416;-73
2023/05/09 09:52:59;;;;;;;;;5.67;5.33;;;;;17.64;67.37;100845.91;5075898;28;45430;-73
2023/05/09 09:55:25;;;;;;;;;3.67;3.67;;;;;17.68;67.51;100857.38;5075466;28;46222;-74
2023/05/09 09:57:51;;;;;;;;;4.00;4.00;;;;;17.79;67.49;100874.19;5075460;28;47067;-74
2023/05/09 10:00:27;;;;;;;;;5.00;5.00;;;;;17.80;67.11;100869.78;5074253;28;45528;-73
2023/05/09 10:02:57;;;;;;;;;6.00;6.00;;;;;17.80;68.94;100873.28;5075281;28;45440;-73
2023/05/09 10:05:30;;;;;;;;;5.67;4.67;;;;;17.83;67.95;100870.72;5074939;28;45507;-73
2023/05/09 10:07:58;;;;;;;;;4.67;4.67;;;;;17.88;68.83;100866.31;5076005;28;45366;-73
2023/05/09 10:10:28;;;;;;;;;32.50;29.75;;;;;18.12;68.33;100890.22;5075624;27;45465;-73
2023/05/09 10:13:02;;;;;;;;;6.00;4.00;;;;;18.26;66.77;100862.97;5078167;27;45499;-72
2023/05/09 10:15:30;;;;;;;;;8.33;7.00;;;;;18.52;67.27;100870.09;5079059;27;46175;-73
2023/05/09 10:17:58;;;;;;;;;4.67;4.33;;;;;18.69;66.87;100859.53;5079044;28;45457;-72
2023/05/09 10:20:24;;;;;;;;;5.33;5.00;;;;;18.90;66.13;100847.25;5076913;28;45617;-73
2023/05/09 10:22:55;;;;;;;;;5.00;4.00;;;;;19.27;65.59;100850.78;5076602;28;45817;-72
2023/05/09 10:25:24;;;;;;;;;4.00;3.67;;;;;19.50;65.64;100864.00;5077752;28;46264;-72
2023/05/09 10:27:53;;;;;;;;;2.67;2.67;;;;;19.47;65.77;100862.22;5078792;28;45351;-73
2023/05/09 10:30:26;;;;;;;;;3.00;3.00;;;;;19.50;65.45;100836.59;5078812;28;45251;-72
2023/05/09 10:33:11;;;;;;;;;2.00;2.00;;;;;19.62;64.95;100852.50;5063899;28;45434;-72
2023/05/09 10:35:45;;;;;;;;;4.00;4.00;;;;;19.50;65.58;100845.47;5067013;28;46421;-73
2023/05/09 10:38:13;;;;;;;;;2.67;2.67;;;;;19.51;65.66;100848.97;5069782;28;45253;-75
2023/05/09 10:40:45;;;;;;;;;3.00;2.00;;;;;19.55;66.20;100875.47;5078761;28;45465;-74
2023/05/09 10:43:13;;;;;;;;;9.67;9.00;;;;;19.46;65.86;100865.78;5077910;28;45432;-73
2023/05/09 10:45:39;;;;;;;;;3.00;3.00;;;;;19.46;65.75;100846.34;5078159;28;45432;-72
2023/05/09 10:48:07;;;;;;;;;5.67;4.67;;;;;19.46;66.35;100855.16;5077632;27;45639;-72
2023/05/09 10:50:39;;;;;;;;;3.33;2.67;;;;;19.36;66.71;100850.78;5078925;28;45571;-72
2023/05/09 10:53:07;;;;;;;;;6.00;6.00;;;;;19.44;66.23;100858.72;5078954;28;45323;-73
2023/05/09 10:55:51;;;;;;;;;3.00;2.33;;;;;19.44;66.43;100864.00;5073989;28;46476;-74
2023/05/09 10:58:39;;;;;;;;;4.00;2.33;;;;;19.40;66.23;100873.72;5062200;28;45591;-73
2023/05/09 11:01:05;;;;;;;;;9.00;7.00;;;;;19.36;66.76;100863.13;5078723;28;45554;-73
2023/05/09 11:03:56;;;;;;;;;2.33;2.33;;;;;19.33;66.26;100881.69;5078617;27;45173;-73
2023/05/09 11:06:40;;;;;;;;;2.00;2.00;;;;;19.32;67.13;100882.53;5066050;28;45542;-72
2023/05/09 11:09:23;;;;;;;;;5.00;4.00;;;;;19.30;67.56;100885.22;5073924;28;45587;-74
2023/05/09 11:12:12;;;;;;;;;4.00;3.00;;;;;19.25;68.26;100882.56;5062408;28;45318;-73
2023/05/09 11:14:45;;;;;;;;;2.67;2.67;;;;;19.26;67.78;100886.97;5078547;28;45631;-73
2023/05/09 11:17:20;;;;;;;;;2.67;2.00;;;;;19.28;67.58;100887.84;5076051;28;45448;-72
2023/05/09 11:19:45;;;;;;;;;2.00;2.00;;;;;19.26;67.90;100892.28;5077264;28;45251;-71
2023/05/09 11:22:19;;;;;;;;;2.00;2.00;;;;;19.25;68.13;100890.50;5078582;28;45423;-72
2023/05/09 11:24:46;;;;;;;;;2.00;2.00;;;;;19.22;67.80;100874.63;5078289;28;45515;-72